Crotts Aircraft Service, Inc.
Current METAR for KDDC
KDDC 191852Z AUTO 20022KT 10SM CLR 23/08 A2997 RMK AO2 PK WND 20031/1753 SLP132 T02330078